createdAt,value
2019-05-22T00:01:38.209Z,2.83
2019-05-22T00:04:15.510Z,2.67
2019-05-22T00:06:45.914Z,3.00
2019-05-22T00:09:23.900Z,3.37
2019-05-22T00:11:53.703Z,2.90
2019-05-22T00:14:24.752Z,3.10
2019-05-22T00:16:54.469Z,3.00
2019-05-22T00:19:24.311Z,3.77
2019-05-22T00:21:55.553Z,4.17
2019-05-22T00:24:25.137Z,4.10
2019-05-22T00:26:55.766Z,4.63
2019-05-22T00:29:25.228Z,3.77
2019-05-22T00:31:55.876Z,4.00
2019-05-22T00:34:26.083Z,5.97
2019-05-22T00:36:56.753Z,4.13
2019-05-22T00:39:27.824Z,4.50
2019-05-22T00:41:57.214Z,4.07
2019-05-22T00:44:29.263Z,4.28
2019-05-22T00:47:00.544Z,4.07
2019-05-22T00:49:30.525Z,4.30
2019-05-22T00:52:19.159Z,5.00
2019-05-22T00:54:54.213Z,5.20
2019-05-22T00:57:29.507Z,4.33
2019-05-22T01:00:03.827Z,4.40
2019-05-22T01:02:35.847Z,5.00
2019-05-22T01:05:05.943Z,5.40
2019-05-22T01:07:40.273Z,5.60
2019-05-22T01:10:11.655Z,5.13
2019-05-22T01:12:43.351Z,4.85
2019-05-22T01:15:15.218Z,5.07
2019-05-22T01:17:46.764Z,5.23
2019-05-22T01:20:17.945Z,6.10
2019-05-22T01:22:49.147Z,4.77
2019-05-22T01:25:20.778Z,4.77
2019-05-22T01:27:50.313Z,5.10
2019-05-22T01:30:39.913Z,5.30
2019-05-22T01:33:23.767Z,5.20
2019-05-22T01:36:03.468Z,4.97
2019-05-22T01:38:34.764Z,5.23
2019-05-22T01:41:14.543Z,6.20
2019-05-22T01:43:44.080Z,6.10
2019-05-22T01:46:15.752Z,6.47
2019-05-22T01:48:46.066Z,6.50
2019-05-22T01:51:16.458Z,6.50
2019-05-22T01:53:46.731Z,6.00
2019-05-22T01:56:18.079Z,6.87
2019-05-22T01:58:48.015Z,7.27
2019-05-22T02:01:19.028Z,7.40
2019-05-22T02:03:48.590Z,7.77
2019-05-22T02:06:19.553Z,9.03
2019-05-22T02:08:53.345Z,9.93
2019-05-22T02:11:23.430Z,10.20
2019-05-22T02:13:56.759Z,9.67
2019-05-22T02:16:27.656Z,10.07
2019-05-22T02:18:57.469Z,9.70
2019-05-22T02:21:28.181Z,9.18
2019-05-22T02:23:58.235Z,9.60
2019-05-22T02:26:29.066Z,10.17
2019-05-22T02:29:00.177Z,12.57
2019-05-22T02:31:30.486Z,11.07
2019-05-22T02:34:02.668Z,10.50
2019-05-22T02:36:34.084Z,12.13
2019-05-22T02:39:05.159Z,12.20
2019-05-22T02:41:46.575Z,13.08
2019-05-22T02:44:17.400Z,13.00
2019-05-22T02:46:47.476Z,13.47
2019-05-22T02:49:18.266Z,16.70
2019-05-22T02:51:48.688Z,15.47
2019-05-22T02:54:18.361Z,20.20
2019-05-22T02:56:48.065Z,19.70
2019-05-22T02:59:18.098Z,20.53
2019-05-22T03:01:48.198Z,18.40
2019-05-22T03:04:19.525Z,21.60
2019-05-22T03:06:50.217Z,21.63
2019-05-22T03:09:24.584Z,22.33
2019-05-22T03:12:01.058Z,25.10
2019-05-22T03:14:32.235Z,20.83
2019-05-22T03:17:04.162Z,24.73
2019-05-22T03:19:44.870Z,25.77
2019-05-22T03:22:20.749Z,26.00
2019-05-22T03:24:51.501Z,30.83
2019-05-22T03:27:24.493Z,26.17
2019-05-22T03:29:55.299Z,29.63
2019-05-22T03:32:25.462Z,28.23
2019-05-22T03:34:55.082Z,29.50
2019-05-22T03:37:25.369Z,30.07
2019-05-22T03:39:55.102Z,31.13
2019-05-22T03:42:24.560Z,31.33
2019-05-22T03:44:55.774Z,32.67
2019-05-22T03:47:25.504Z,31.60
2019-05-22T03:49:55.263Z,29.07
2019-05-22T03:52:25.396Z,33.67
2019-05-22T03:54:55.880Z,37.90
2019-05-22T03:57:25.615Z,32.20
2019-05-22T03:59:55.214Z,33.43
2019-05-22T04:02:24.682Z,34.93
2019-05-22T04:04:54.821Z,35.43
2019-05-22T04:07:24.291Z,33.10
2019-05-22T04:09:55.333Z,39.80
2019-05-22T04:12:24.787Z,34.73
2019-05-22T04:14:54.622Z,38.00
2019-05-22T04:17:25.419Z,34.17
2019-05-22T04:19:55.780Z,36.53
2019-05-22T04:22:25.513Z,43.47
2019-05-22T04:24:55.196Z,39.73
2019-05-22T04:27:25.183Z,36.07
2019-05-22T04:29:55.875Z,36.17
2019-05-22T04:32:29.762Z,34.13
2019-05-22T04:34:59.446Z,33.27
2019-05-22T04:37:29.457Z,31.47
2019-05-22T04:40:25.867Z,38.70
2019-05-22T04:42:56.272Z,34.57
2019-05-22T04:45:26.787Z,36.63
2019-05-22T04:48:01.258Z,35.23
2019-05-22T04:50:30.971Z,35.97
2019-05-22T04:53:01.336Z,36.03
2019-05-22T04:55:31.199Z,36.40
2019-05-22T04:58:11.175Z,41.87
2019-05-22T05:00:41.032Z,43.40
2019-05-22T05:03:11.844Z,43.33
2019-05-22T05:05:45.821Z,38.77
2019-05-22T05:08:15.354Z,41.50
2019-05-22T05:10:47.709Z,41.80
2019-05-22T05:13:17.574Z,37.93
2019-05-22T05:15:47.256Z,39.53
2019-05-22T05:18:16.799Z,40.97
2019-05-22T05:20:46.456Z,38.17
2019-05-22T05:23:16.278Z,36.13
2019-05-22T05:25:46.398Z,42.93
2019-05-22T05:28:15.936Z,39.10
2019-05-22T05:30:45.407Z,36.47
2019-05-22T05:33:15.539Z,36.57
2019-05-22T05:35:45.280Z,34.03
2019-05-22T05:38:15.709Z,34.93
2019-05-22T05:40:46.349Z,33.53
2019-05-22T05:43:15.883Z,39.27
2019-05-22T05:45:48.430Z,43.20
2019-05-22T05:48:19.824Z,42.47
2019-05-22T05:51:08.493Z,43.47
2019-05-22T05:54:10.693Z,43.20
2019-05-22T05:56:41.332Z,42.00
2019-05-22T05:59:12.356Z,45.90
2019-05-22T06:01:43.750Z,43.07
2019-05-22T06:04:13.336Z,49.03
2019-05-22T06:06:46.089Z,60.17
2019-05-22T06:09:19.993Z,50.53
2019-05-22T06:11:53.822Z,48.77
2019-05-22T06:14:29.677Z,49.90
2019-05-22T06:17:38.699Z,50.03
2019-05-22T06:20:11.817Z,48.60
2019-05-22T06:22:42.700Z,46.67
2019-05-22T06:25:12.465Z,48.60
2019-05-22T06:27:43.633Z,44.03
2019-05-22T06:30:16.543Z,49.23
2019-05-22T06:33:10.281Z,44.55
2019-05-22T06:35:40.371Z,57.70
2019-05-22T06:38:28.010Z,43.03
2019-05-22T06:40:57.559Z,40.93
2019-05-22T06:43:32.120Z,42.50
2019-05-22T06:46:01.663Z,43.97
2019-05-22T06:48:31.394Z,45.73
2019-05-22T06:51:01.356Z,42.83
2019-05-22T06:53:30.767Z,42.03
2019-05-22T06:56:00.349Z,38.53
2019-05-22T06:58:29.873Z,41.67
2019-05-22T07:00:59.439Z,37.87
2019-05-22T07:03:28.887Z,34.50
2019-05-22T07:05:58.604Z,37.27
2019-05-22T07:08:28.743Z,37.80
2019-05-22T07:10:58.753Z,36.63
2019-05-22T07:13:29.805Z,42.07
2019-05-22T07:16:00.509Z,40.43
2019-05-22T07:18:31.944Z,35.03
2019-05-22T07:21:01.444Z,40.57
2019-05-22T07:23:32.098Z,41.07
2019-05-22T07:26:02.247Z,39.20
2019-05-22T07:28:32.123Z,40.80
2019-05-22T07:31:02.366Z,39.53
2019-05-22T07:33:32.722Z,38.67
2019-05-22T07:36:09.958Z,42.47
2019-05-22T07:38:34.653Z,36.27
2019-05-22T07:41:06.001Z,37.70
2019-05-22T07:43:35.524Z,35.00
2019-05-22T07:46:05.042Z,36.80
2019-05-22T07:48:34.671Z,33.37
2019-05-22T07:51:05.934Z,38.67
2019-05-22T07:53:35.598Z,34.08
2019-05-22T07:56:08.633Z,33.73
2019-05-22T07:58:38.583Z,31.65
2019-05-22T08:01:07.979Z,32.43
2019-05-22T08:03:38.256Z,30.93
2019-05-22T08:06:08.469Z,30.73
2019-05-22T08:08:38.420Z,31.27
2019-05-22T08:11:09.612Z,30.07
2019-05-22T08:13:39.751Z,30.87
2019-05-22T08:16:09.780Z,26.40
2019-05-22T08:18:39.633Z,26.53
2019-05-22T08:21:09.441Z,26.20
2019-05-22T08:23:39.871Z,27.30
2019-05-22T08:26:11.149Z,27.53
2019-05-22T08:28:40.672Z,27.40
2019-05-22T08:31:10.901Z,26.23
2019-05-22T08:33:40.684Z,26.40
2019-05-22T08:36:10.175Z,24.30
2019-05-22T08:38:40.236Z,26.70
2019-05-22T08:41:10.937Z,24.17
2019-05-22T08:44:11.536Z,25.02
2019-05-22T08:46:13.807Z,24.97
2019-05-22T08:48:48.021Z,28.07
2019-05-22T08:51:15.941Z,24.27
2019-05-22T08:53:48.085Z,23.40
2019-05-22T08:56:16.908Z,29.17
2019-05-22T08:58:47.656Z,26.37
2019-05-22T09:01:17.459Z,28.70
2019-05-22T09:03:47.395Z,27.20
2019-05-22T09:06:16.952Z,25.40
2019-05-22T09:08:46.914Z,27.13
2019-05-22T09:11:16.611Z,26.77
2019-05-22T09:13:47.790Z,24.90
2019-05-22T09:16:18.105Z,26.70
2019-05-22T09:18:47.621Z,27.57
2019-05-22T09:21:17.402Z,26.20
2019-05-22T09:23:47.388Z,28.73
2019-05-22T09:26:18.781Z,25.40
2019-05-22T09:28:48.494Z,26.87
2019-05-22T09:31:18.306Z,25.27
2019-05-22T09:33:48.141Z,30.93
2019-05-22T09:36:17.739Z,31.10
2019-05-22T09:38:47.312Z,28.57
2019-05-22T09:41:17.237Z,30.83
2019-05-22T09:43:46.997Z,27.20
2019-05-22T09:46:18.025Z,27.47
2019-05-22T09:48:48.016Z,33.60
2019-05-22T09:51:17.663Z,31.30
2019-05-22T09:53:48.111Z,32.07
2019-05-22T09:56:18.168Z,37.00
2019-05-22T09:58:48.008Z,32.03
2019-05-22T10:01:17.995Z,32.13
2019-05-22T10:03:48.100Z,34.90
2019-05-22T10:06:17.762Z,31.63
2019-05-22T10:08:47.239Z,30.40
2019-05-22T10:11:17.066Z,31.27
2019-05-22T10:13:46.979Z,31.15
2019-05-22T10:16:17.021Z,33.10
2019-05-22T10:18:46.906Z,30.70
2019-05-22T10:21:17.368Z,31.60
2019-05-22T10:23:47.123Z,28.03
2019-05-22T10:26:16.963Z,29.83
2019-05-22T10:28:50.468Z,30.68
2019-05-22T10:31:21.782Z,32.17
2019-05-22T10:33:52.093Z,31.43
2019-05-22T10:36:21.983Z,30.23
2019-05-22T10:38:51.417Z,36.43
2019-05-22T10:41:21.140Z,30.83
2019-05-22T10:43:51.377Z,27.27
2019-05-22T10:46:20.815Z,25.60
2019-05-22T10:48:50.659Z,28.20
2019-05-22T10:51:20.200Z,24.60
2019-05-22T10:53:49.875Z,27.70
2019-05-22T10:56:19.336Z,28.93
2019-05-22T10:58:48.823Z,28.13
2019-05-22T11:01:19.560Z,27.37
2019-05-22T11:03:49.756Z,23.40
2019-05-22T11:06:19.642Z,25.33
2019-05-22T11:08:49.121Z,28.63
2019-05-22T11:11:18.773Z,26.23
2019-05-22T11:14:00.782Z,26.00
2019-05-22T11:16:19.411Z,24.37
2019-05-22T11:18:49.003Z,27.23
2019-05-22T11:21:18.452Z,26.90
2019-05-22T11:23:52.641Z,24.90
2019-05-22T11:26:19.076Z,23.97
2019-05-22T11:28:49.396Z,25.67
2019-05-22T11:31:18.848Z,26.20
2019-05-22T11:33:48.886Z,25.90
2019-05-22T11:36:18.605Z,29.10
2019-05-22T11:38:48.122Z,26.17
2019-05-22T11:41:18.044Z,26.97
2019-05-22T11:43:47.807Z,25.93
2019-05-22T11:46:17.346Z,28.20
2019-05-22T11:48:47.155Z,26.57
2019-05-22T11:51:16.976Z,25.13
2019-05-22T11:53:46.862Z,24.35
2019-05-22T11:56:16.241Z,22.10
2019-05-22T11:58:45.950Z,25.27
2019-05-22T12:01:15.477Z,26.17
2019-05-22T12:03:45.111Z,22.33
2019-05-22T12:06:15.158Z,20.80
2019-05-22T12:08:45.592Z,23.47
2019-05-22T12:11:16.220Z,28.07
2019-05-22T12:13:46.181Z,23.38
2019-05-22T12:16:16.029Z,25.10
2019-05-22T12:18:45.417Z,22.93
2019-05-22T12:21:15.119Z,24.90
2019-05-22T12:23:44.995Z,24.55
2019-05-22T12:26:14.575Z,32.97
2019-05-22T12:28:44.185Z,28.03
2019-05-22T12:31:14.501Z,24.63
2019-05-22T12:33:44.089Z,24.70
2019-05-22T12:36:14.129Z,25.43
2019-05-22T12:38:44.309Z,25.70
2019-05-22T12:41:14.386Z,25.60
2019-05-22T12:43:44.917Z,25.27
2019-05-22T12:46:15.075Z,23.90
2019-05-22T12:48:45.219Z,25.90
2019-05-22T12:51:15.188Z,25.07
2019-05-22T12:53:45.084Z,24.20
2019-05-22T12:56:14.508Z,23.87
2019-05-22T12:58:44.336Z,24.93
2019-05-22T13:01:14.693Z,21.53
2019-05-22T13:03:44.890Z,21.93
2019-05-22T13:06:14.383Z,23.63
2019-05-22T13:08:44.055Z,25.40
2019-05-22T13:11:13.587Z,27.23
2019-05-22T13:13:43.380Z,23.83
2019-05-22T13:16:12.948Z,26.17
2019-05-22T13:18:42.401Z,27.90
2019-05-22T13:21:12.359Z,21.33
2019-05-22T13:23:44.139Z,20.67
2019-05-22T13:26:13.975Z,20.70
2019-05-22T13:28:44.853Z,21.43
2019-05-22T13:31:14.870Z,24.17
2019-05-22T13:33:45.405Z,22.23
2019-05-22T13:36:15.654Z,24.27
2019-05-22T13:38:45.359Z,23.97
2019-05-22T13:41:15.725Z,24.70
2019-05-22T13:43:45.248Z,24.27
2019-05-22T13:46:15.478Z,26.60
2019-05-22T13:48:45.199Z,26.90
2019-05-22T13:51:15.511Z,24.13
2019-05-22T13:53:45.319Z,25.33
2019-05-22T13:56:15.135Z,27.43
2019-05-22T13:58:45.392Z,26.12
2019-05-22T14:01:15.208Z,28.33
2019-05-22T14:03:44.651Z,26.73
2019-05-22T14:06:14.161Z,29.10
2019-05-22T14:08:43.771Z,28.33
2019-05-22T14:11:13.304Z,30.30
2019-05-22T14:13:43.477Z,28.98
2019-05-22T14:16:13.699Z,28.73
2019-05-22T14:18:43.214Z,27.10
2019-05-22T14:21:13.018Z,32.27
2019-05-22T14:23:42.473Z,22.57
2019-05-22T14:26:12.030Z,24.67
2019-05-22T14:28:41.793Z,24.07
2019-05-22T14:31:11.415Z,24.13
2019-05-22T14:33:41.221Z,21.33
2019-05-22T14:36:11.542Z,22.30
2019-05-22T14:38:46.568Z,22.13
2019-05-22T14:41:16.171Z,21.23
2019-05-22T14:43:46.365Z,23.22
2019-05-22T14:46:16.088Z,20.43
2019-05-22T14:48:45.565Z,18.70
2019-05-22T14:51:15.169Z,20.10
2019-05-22T14:53:45.598Z,18.63
2019-05-22T14:56:15.130Z,20.23
2019-05-22T14:58:44.609Z,17.70
2019-05-22T15:01:14.761Z,22.33
2019-05-22T15:03:45.127Z,21.67
2019-05-22T15:06:15.216Z,22.43
2019-05-22T15:08:44.679Z,21.17
2019-05-22T15:11:15.279Z,20.83
2019-05-22T15:13:45.104Z,20.13
2019-05-22T15:16:14.643Z,28.70
2019-05-22T15:18:44.523Z,19.00
2019-05-22T15:21:16.745Z,19.97
2019-05-22T15:23:46.876Z,21.77
2019-05-22T15:26:16.834Z,22.37
2019-05-22T15:28:46.553Z,20.07
2019-05-22T15:31:17.801Z,22.03
2019-05-22T15:33:47.503Z,23.27
2019-05-22T15:36:18.871Z,21.30
2019-05-22T15:38:48.579Z,19.23
2019-05-22T15:41:18.302Z,19.43
2019-05-22T15:43:52.059Z,18.80
2019-05-22T15:46:19.951Z,19.80
2019-05-22T15:48:49.835Z,18.60
2019-05-22T15:51:22.846Z,18.00
2019-05-22T15:53:55.435Z,17.30
2019-05-22T15:56:31.004Z,16.57
2019-05-22T15:59:01.348Z,19.90
2019-05-22T16:01:30.880Z,18.90
2019-05-22T16:04:00.416Z,16.77
2019-05-22T16:06:30.007Z,16.03
2019-05-22T16:08:59.623Z,13.70
2019-05-22T16:11:29.944Z,11.45
2019-05-22T16:13:59.685Z,12.97
2019-05-22T16:16:31.235Z,15.10
2019-05-22T16:19:03.242Z,11.10
2019-05-22T16:21:33.426Z,11.67
2019-05-22T16:24:03.194Z,11.53
2019-05-22T16:26:32.726Z,11.73
2019-05-22T16:29:02.467Z,12.97
2019-05-22T16:31:32.692Z,11.37
2019-05-22T16:34:02.786Z,7.63
2019-05-22T16:36:33.239Z,11.23
2019-05-22T16:39:03.319Z,8.67
2019-05-22T16:41:33.137Z,7.70
2019-05-22T16:44:02.656Z,9.13
2019-05-22T16:46:33.639Z,9.97
2019-05-22T16:49:03.723Z,7.63
2019-05-22T16:51:33.381Z,7.00
2019-05-22T16:54:05.194Z,7.73
2019-05-22T16:56:35.633Z,8.60
2019-05-22T16:59:08.731Z,7.67
2019-05-22T17:01:56.925Z,7.47
2019-05-22T17:04:09.617Z,9.00
2019-05-22T17:06:40.309Z,8.53
2019-05-22T17:09:11.386Z,9.03
2019-05-22T17:11:41.170Z,9.93
2019-05-22T17:14:11.990Z,11.37
2019-05-22T17:16:43.179Z,13.67
2019-05-22T17:19:26.286Z,9.93
2019-05-22T17:21:44.749Z,8.47
2019-05-22T17:24:15.064Z,8.60
2019-05-22T17:26:44.800Z,8.30
2019-05-22T17:29:14.788Z,9.10
2019-05-22T17:31:44.875Z,7.67
2019-05-22T17:34:33.057Z,7.00
2019-05-22T17:37:06.256Z,7.13
2019-05-22T17:39:36.625Z,7.63
2019-05-22T17:42:07.943Z,7.37
2019-05-22T17:44:38.316Z,6.73
2019-05-22T17:47:09.134Z,10.63
2019-05-22T17:49:38.959Z,7.20
2019-05-22T17:52:12.012Z,8.50
2019-05-22T17:54:40.213Z,8.07
2019-05-22T17:57:10.528Z,6.87
2019-05-22T17:59:40.143Z,5.73
2019-05-22T18:02:11.319Z,5.87
2019-05-22T18:04:41.012Z,6.57
2019-05-22T18:07:10.717Z,5.93
2019-05-22T18:09:40.963Z,6.20
2019-05-22T18:12:11.013Z,5.77
2019-05-22T18:14:40.758Z,5.70
2019-05-22T18:17:11.044Z,6.03
2019-05-22T18:19:41.105Z,5.90
2019-05-22T18:22:12.287Z,5.80
2019-05-22T18:24:41.971Z,5.67
2019-05-22T18:27:11.687Z,6.70
2019-05-22T18:29:41.190Z,6.07
2019-05-22T18:32:11.427Z,5.77
2019-05-22T18:34:40.943Z,7.93
2019-05-22T18:37:11.209Z,18.87
2019-05-22T18:39:42.241Z,19.30
2019-05-22T18:42:12.057Z,10.70
2019-05-22T18:44:41.764Z,10.47
2019-05-22T18:47:11.768Z,11.27
2019-05-22T18:49:41.235Z,7.73
2019-05-22T18:52:11.439Z,8.63
2019-05-22T18:54:41.048Z,10.30
2019-05-22T18:57:10.813Z,7.57
2019-05-22T18:59:40.250Z,7.23
2019-05-22T19:02:09.732Z,6.97
2019-05-22T19:04:39.409Z,7.07
2019-05-22T19:07:08.959Z,8.57
2019-05-22T19:09:38.752Z,6.17
2019-05-22T19:12:08.362Z,8.20
2019-05-22T19:14:38.156Z,7.57
2019-05-22T19:17:07.844Z,7.83
2019-05-22T19:19:38.584Z,6.83
2019-05-22T19:22:14.779Z,7.00
2019-05-22T19:24:39.871Z,6.97
2019-05-22T19:27:09.444Z,7.93
2019-05-22T19:29:39.060Z,7.37
2019-05-22T19:32:08.746Z,6.97
2019-05-22T19:34:38.251Z,9.10
2019-05-22T19:37:07.735Z,9.57
2019-05-22T19:39:37.411Z,9.47
2019-05-22T19:42:07.871Z,9.43
2019-05-22T19:44:37.533Z,10.27
2019-05-22T19:47:08.705Z,10.20
2019-05-22T19:49:38.315Z,9.37
2019-05-22T19:52:08.535Z,11.03
2019-05-22T19:54:38.420Z,9.20
2019-05-22T19:57:09.165Z,10.03
2019-05-22T19:59:38.972Z,12.03
2019-05-22T20:02:10.451Z,10.00
2019-05-22T20:04:40.313Z,11.33
2019-05-22T20:07:11.095Z,9.30
2019-05-22T20:09:41.744Z,10.43
2019-05-22T20:12:13.170Z,9.03
2019-05-22T20:14:43.176Z,9.37
2019-05-22T20:17:12.905Z,9.93
2019-05-22T20:19:42.739Z,10.83
2019-05-22T20:22:12.477Z,10.97
2019-05-22T20:24:42.089Z,9.53
2019-05-22T20:27:11.902Z,11.30
2019-05-22T20:29:41.419Z,10.07
2019-05-22T20:32:11.956Z,11.80
2019-05-22T20:34:41.740Z,11.93
2019-05-22T20:37:11.347Z,10.97
2019-05-22T20:39:41.054Z,12.37
2019-05-22T20:42:13.974Z,13.37
2019-05-22T20:44:44.072Z,18.15
2019-05-22T20:47:13.924Z,23.50
2019-05-22T20:49:44.890Z,16.33
2019-05-22T20:52:14.456Z,20.50
2019-05-22T20:54:45.106Z,19.93
2019-05-22T20:57:19.612Z,15.70
2019-05-22T20:59:47.721Z,13.67
2019-05-22T21:02:18.590Z,13.60
2019-05-22T21:04:50.159Z,17.07
2019-05-22T21:07:26.505Z,16.80
2019-05-22T21:09:56.505Z,20.90
2019-05-22T21:12:26.503Z,26.30
2019-05-22T21:14:56.483Z,15.53
2019-05-22T21:17:26.368Z,18.30
2019-05-22T21:19:55.995Z,22.27
2019-05-22T21:22:25.626Z,20.50
2019-05-22T21:24:55.411Z,22.27
2019-05-22T21:27:24.889Z,22.10
2019-05-22T21:29:54.471Z,20.37
2019-05-22T21:32:24.308Z,22.60
2019-05-22T21:34:54.291Z,17.80
2019-05-22T21:37:24.165Z,21.37
2019-05-22T21:39:54.647Z,19.33
2019-05-22T21:42:25.823Z,15.87
2019-05-22T21:44:55.556Z,17.00
2019-05-22T21:47:25.610Z,17.57
2019-05-22T21:49:55.437Z,17.63
2019-05-22T21:52:26.660Z,16.40
2019-05-22T21:54:56.836Z,16.83
2019-05-22T21:57:26.348Z,17.30
2019-05-22T21:59:56.055Z,15.47
2019-05-22T22:02:30.395Z,18.27
2019-05-22T22:05:00.475Z,21.23
2019-05-22T22:07:30.621Z,20.47
2019-05-22T22:10:00.584Z,23.20
2019-05-22T22:12:30.958Z,24.23
2019-05-22T22:15:00.979Z,22.67
2019-05-22T22:17:30.780Z,23.50
2019-05-22T22:20:01.323Z,23.60
2019-05-22T22:22:31.529Z,21.37
2019-05-22T22:25:01.826Z,21.90
2019-05-22T22:27:31.432Z,21.17
2019-05-22T22:30:02.895Z,20.80
2019-05-22T22:32:33.935Z,21.00
2019-05-22T22:35:03.877Z,18.53
2019-05-22T22:37:34.065Z,22.53
2019-05-22T22:40:04.736Z,18.17
2019-05-22T22:42:36.916Z,17.87
2019-05-22T22:45:09.295Z,15.50
2019-05-22T22:47:42.716Z,17.45
2019-05-22T22:50:13.711Z,18.10
2019-05-22T22:52:43.238Z,16.50
2019-05-22T22:55:13.082Z,17.90
2019-05-22T22:57:43.649Z,18.90
2019-05-22T23:00:15.334Z,16.53
2019-05-22T23:02:46.732Z,16.80
2019-05-22T23:05:16.739Z,16.07
2019-05-22T23:07:47.557Z,19.67
2019-05-22T23:10:17.633Z,17.63
2019-05-22T23:12:47.431Z,18.57
2019-05-22T23:15:18.485Z,22.73
2019-05-22T23:17:48.418Z,20.63
2019-05-22T23:20:17.290Z,20.73
2019-05-22T23:23:07.073Z,23.57
2019-05-22T23:25:37.440Z,23.27
2019-05-22T23:28:08.305Z,22.57
2019-05-22T23:30:38.199Z,20.90
2019-05-22T23:33:07.671Z,22.97
2019-05-22T23:35:37.253Z,23.03
2019-05-22T23:38:07.421Z,20.13
2019-05-22T23:40:37.518Z,20.77
2019-05-22T23:43:07.464Z,20.07
2019-05-22T23:45:37.467Z,20.27
2019-05-22T23:48:16.126Z,19.93
2019-05-22T23:50:47.245Z,23.43
2019-05-22T23:53:16.741Z,20.70
2019-05-22T23:55:46.335Z,20.47
2019-05-22T23:58:17.733Z,21.67
